createdAt,value
2023-04-20T00:00:15.077Z,101222.29
2023-04-20T00:01:11.089Z,101221.99
2023-04-20T00:02:11.127Z,101224.26
2023-04-20T00:03:11.208Z,101224.36
2023-04-20T00:04:11.173Z,101223.92
2023-04-20T00:05:11.081Z,101225.34
2023-04-20T00:06:11.083Z,101225.38
2023-04-20T00:07:11.073Z,101222.86
2023-04-20T00:08:11.075Z,101229.77
2023-04-20T00:09:11.075Z,101227.95
2023-04-20T00:10:11.092Z,101224.54
2023-04-20T00:11:11.087Z,101223.90
2023-04-20T00:12:11.074Z,101220.38
2023-04-20T00:13:11.096Z,101210.57
2023-04-20T00:14:11.083Z,101217.04
2023-04-20T00:15:11.080Z,101218.11
2023-04-20T00:16:11.077Z,101222.20
2023-04-20T00:17:11.140Z,101217.92
2023-04-20T00:18:11.090Z,101217.72
2023-04-20T00:19:11.079Z,101215.79
2023-04-20T00:20:11.077Z,101211.10
2023-04-20T00:21:11.076Z,101220.45
2023-04-20T00:22:11.083Z,101210.09
2023-04-20T00:23:11.073Z,101210.32
2023-04-20T00:24:11.078Z,101212.04
2023-04-20T00:25:11.084Z,101216.42
2023-04-20T00:26:11.074Z,101214.44
2023-04-20T00:27:11.076Z,101214.82
2023-04-20T00:28:11.086Z,101213.94
2023-04-20T00:29:11.076Z,101214.01
2023-04-20T00:30:11.086Z,101219.13
2023-04-20T00:31:11.125Z,101206.00
2023-04-20T00:32:11.072Z,101211.88
2023-04-20T00:33:11.070Z,101211.58
2023-04-20T00:34:11.077Z,101212.62
2023-04-20T00:35:11.088Z,101209.96
2023-04-20T00:36:11.076Z,101210.61
2023-04-20T00:37:11.074Z,101207.80
2023-04-20T00:38:11.096Z,101207.22
2023-04-20T00:39:11.100Z,101205.12
2023-04-20T00:40:11.069Z,101207.38
2023-04-20T00:41:11.082Z,101208.05
2023-04-20T00:42:11.072Z,101204.90
2023-04-20T00:43:13.070Z,101206.00
2023-04-20T00:44:11.081Z,101205.39
2023-04-20T00:45:11.071Z,101203.39
2023-04-20T00:46:11.135Z,101209.05
2023-04-20T00:47:11.081Z,101205.77
2023-04-20T00:48:11.086Z,101208.71
2023-04-20T00:49:11.080Z,101204.41
2023-04-20T00:50:11.094Z,101206.25
2023-04-20T00:51:11.080Z,101207.34
2023-04-20T00:52:11.068Z,101202.43
2023-04-20T00:53:11.079Z,101201.55
2023-04-20T00:54:11.072Z,101202.32
2023-04-20T00:55:11.066Z,101200.28
2023-04-20T00:56:11.089Z,101199.39
2023-04-20T00:57:13.076Z,101199.58
2023-04-20T00:58:11.074Z,101201.84
2023-04-20T00:59:11.072Z,101201.63
2023-04-20T01:00:11.125Z,101201.62
2023-04-20T01:01:11.178Z,101198.27
2023-04-20T01:02:11.153Z,101197.78
2023-04-20T01:03:11.240Z,101195.75
2023-04-20T01:04:11.250Z,101195.22
2023-04-20T01:05:11.065Z,101194.97
2023-04-20T01:06:11.064Z,101195.34
2023-04-20T01:07:11.062Z,101189.71
2023-04-20T01:08:11.060Z,101190.30
2023-04-20T01:09:11.061Z,101189.79
2023-04-20T01:10:11.076Z,101191.71
2023-04-20T01:11:11.060Z,101190.71
2023-04-20T01:12:11.060Z,101186.30
2023-04-20T01:13:11.076Z,101184.95
2023-04-20T01:14:11.059Z,101186.45
2023-04-20T01:15:11.066Z,101189.97
2023-04-20T01:16:11.099Z,101184.31
2023-04-20T01:17:11.066Z,101186.34
2023-04-20T01:18:11.060Z,101176.09
2023-04-20T01:19:11.070Z,101178.85
2023-04-20T01:20:11.059Z,101174.73
2023-04-20T01:21:11.057Z,101179.14
2023-04-20T01:22:14.063Z,101181.38
2023-04-20T01:23:11.059Z,101178.14
2023-04-20T01:24:11.064Z,101176.30
2023-04-20T01:25:11.071Z,101177.18
2023-04-20T01:26:11.061Z,101174.82
2023-04-20T01:27:11.061Z,101178.74
2023-04-20T01:28:11.070Z,101175.14
2023-04-20T01:29:11.061Z,101179.23
2023-04-20T01:30:11.059Z,101174.65
2023-04-20T01:31:11.104Z,101176.75
2023-04-20T01:32:11.060Z,101176.36
2023-04-20T01:33:11.068Z,101176.18
2023-04-20T01:34:11.065Z,101176.54
2023-04-20T01:35:11.064Z,101176.97
2023-04-20T01:36:11.059Z,101174.05
2023-04-20T01:37:12.077Z,101177.26
2023-04-20T01:38:11.063Z,101175.28
2023-04-20T01:39:11.094Z,101173.12
2023-04-20T01:40:13.072Z,101170.34
2023-04-20T01:41:11.081Z,101170.59
2023-04-20T01:42:11.066Z,101174.10
2023-04-20T01:43:11.074Z,101171.00
2023-04-20T01:44:11.069Z,101167.89
2023-04-20T01:45:11.085Z,101170.92
2023-04-20T01:46:11.157Z,101166.10
2023-04-20T01:47:11.071Z,101165.55
2023-04-20T01:48:11.067Z,101169.07
2023-04-20T01:49:11.064Z,101166.32
2023-04-20T01:50:11.073Z,101164.71
2023-04-20T01:51:11.065Z,101170.20
2023-04-20T01:52:11.065Z,101170.27
2023-04-20T01:53:11.068Z,101165.97
2023-04-20T01:54:11.070Z,101164.66
2023-04-20T01:55:11.067Z,101161.89
2023-04-20T01:56:11.068Z,101160.56
2023-04-20T01:57:11.081Z,101158.18
2023-04-20T01:58:11.067Z,101157.60
2023-04-20T01:59:11.070Z,101159.15
2023-04-20T02:00:11.066Z,101159.19
2023-04-20T02:01:11.143Z,101156.52
2023-04-20T02:02:11.123Z,101155.75
2023-04-20T02:03:11.256Z,101154.41
2023-04-20T02:04:11.119Z,101154.62
2023-04-20T02:05:11.068Z,101155.02
2023-04-20T02:06:11.073Z,101156.14
2023-04-20T02:07:11.080Z,101154.58
2023-04-20T02:08:11.066Z,101156.36
2023-04-20T02:09:11.066Z,101157.16
2023-04-20T02:10:11.068Z,101154.52
2023-04-20T02:11:11.076Z,101156.52
2023-04-20T02:12:11.077Z,101156.62
2023-04-20T02:13:11.078Z,101159.67
2023-04-20T02:14:11.075Z,101148.48
2023-04-20T02:15:11.074Z,101154.54
2023-04-20T02:16:11.078Z,101154.26
2023-04-20T02:17:11.115Z,101157.33
2023-04-20T02:18:11.129Z,101157.60
2023-04-20T02:19:11.070Z,101157.51
2023-04-20T02:20:15.096Z,101155.88
2023-04-20T02:21:11.076Z,101156.95
2023-04-20T02:22:11.062Z,101158.65
2023-04-20T02:23:11.081Z,101156.65
2023-04-20T02:24:11.076Z,101159.06
2023-04-20T02:25:11.064Z,101155.97
2023-04-20T02:26:11.066Z,101160.02
2023-04-20T02:27:11.121Z,101158.63
2023-04-20T02:28:11.067Z,101156.30
2023-04-20T02:29:11.064Z,101151.89
2023-04-20T02:30:11.064Z,101155.90
2023-04-20T02:31:11.134Z,101154.89
2023-04-20T02:32:11.076Z,101159.69
2023-04-20T02:33:11.065Z,101156.26
2023-04-20T02:34:13.061Z,101158.12
2023-04-20T02:35:11.064Z,101151.90
2023-04-20T02:36:11.093Z,101149.77
2023-04-20T02:37:11.064Z,101149.86
2023-04-20T02:38:11.067Z,101152.01
2023-04-20T02:39:11.078Z,101152.04
2023-04-20T02:40:11.069Z,101150.82
2023-04-20T02:41:11.062Z,101151.21
2023-04-20T02:42:11.082Z,101147.73
2023-04-20T02:43:11.073Z,101152.52
2023-04-20T02:44:11.065Z,101152.12
2023-04-20T02:45:11.097Z,101154.00
2023-04-20T02:46:11.113Z,101150.57
2023-04-20T02:47:11.064Z,101153.10
2023-04-20T02:48:11.066Z,101147.29
2023-04-20T02:49:11.071Z,101154.99
2023-04-20T02:50:11.074Z,101152.05
2023-04-20T02:51:11.079Z,101152.46
2023-04-20T02:52:11.116Z,101151.55
2023-04-20T02:53:11.067Z,101150.50
2023-04-20T02:54:11.070Z,101149.13
2023-04-20T02:55:11.077Z,101150.64
2023-04-20T02:56:11.076Z,101150.02
2023-04-20T02:57:11.079Z,101145.39
2023-04-20T02:58:11.078Z,101143.22
2023-04-20T02:59:11.083Z,101148.49
2023-04-20T03:00:12.072Z,101144.34
2023-04-20T03:01:11.083Z,101143.76
2023-04-20T03:02:11.145Z,101145.75
2023-04-20T03:03:11.245Z,101139.40
2023-04-20T03:04:11.144Z,101143.93
2023-04-20T03:05:11.072Z,101140.11
2023-04-20T03:06:11.069Z,101144.45
2023-04-20T03:07:11.090Z,101139.45
2023-04-20T03:08:11.072Z,101141.08
2023-04-20T03:09:11.070Z,101141.03
2023-04-20T03:10:11.071Z,101139.95
2023-04-20T03:11:11.073Z,101140.03
2023-04-20T03:12:11.077Z,101136.50
2023-04-20T03:13:11.069Z,101144.45
2023-04-20T03:14:11.073Z,101135.50
2023-04-20T03:15:11.070Z,101141.81
2023-04-20T03:16:11.079Z,101138.06
2023-04-20T03:17:11.079Z,101142.89
2023-04-20T03:18:11.070Z,101138.99
2023-04-20T03:19:11.087Z,101143.59
2023-04-20T03:20:11.078Z,101141.00
2023-04-20T03:21:11.069Z,101143.94
2023-04-20T03:22:11.073Z,101141.34
2023-04-20T03:23:11.080Z,101140.00
2023-04-20T03:24:11.073Z,101144.71
2023-04-20T03:25:11.065Z,101141.75
2023-04-20T03:26:11.086Z,101145.00
2023-04-20T03:27:11.072Z,101142.64
2023-04-20T03:28:11.063Z,101142.68
2023-04-20T03:29:11.071Z,101144.55
2023-04-20T03:30:11.070Z,101148.50
2023-04-20T03:31:11.067Z,101143.58
2023-04-20T03:32:11.161Z,101146.91
2023-04-20T03:33:11.158Z,101148.59
2023-04-20T03:34:11.071Z,101148.75
2023-04-20T03:35:11.086Z,101148.42
2023-04-20T03:36:11.076Z,101148.09
2023-04-20T03:37:11.068Z,101143.42
2023-04-20T03:38:11.084Z,101144.84
2023-04-20T03:39:11.070Z,101145.19
2023-04-20T03:40:11.067Z,101144.80
2023-04-20T03:41:11.071Z,101145.35
2023-04-20T03:42:11.075Z,101144.86
2023-04-20T03:43:11.064Z,101144.68
2023-04-20T03:44:11.092Z,101146.68
2023-04-20T03:45:11.141Z,101150.18
2023-04-20T03:46:11.088Z,101147.78
2023-04-20T03:47:11.073Z,101150.01
2023-04-20T03:48:11.077Z,101151.39
2023-04-20T03:49:11.069Z,101151.55
2023-04-20T03:50:11.076Z,101155.87
2023-04-20T03:51:11.079Z,101152.91
2023-04-20T03:52:11.079Z,101154.79
2023-04-20T03:53:11.069Z,101155.82
2023-04-20T03:54:11.073Z,101153.98
2023-04-20T03:55:11.068Z,101158.27
2023-04-20T03:56:11.068Z,101158.07
2023-04-20T03:57:11.072Z,101158.72
2023-04-20T03:58:13.070Z,101157.00
2023-04-20T03:59:11.068Z,101162.16
2023-04-20T04:00:11.175Z,101160.95
2023-04-20T04:01:14.062Z,101157.20
2023-04-20T04:02:11.190Z,101157.01
2023-04-20T04:03:11.252Z,101157.46
2023-04-20T04:04:11.389Z,101154.67
2023-04-20T04:05:11.094Z,101156.08
2023-04-20T04:06:11.056Z,101152.58
2023-04-20T04:07:11.067Z,101149.79
2023-04-20T04:08:11.066Z,101147.67
2023-04-20T04:09:11.059Z,101149.17
2023-04-20T04:10:11.068Z,101149.41
2023-04-20T04:11:11.060Z,101146.31
2023-04-20T04:12:11.064Z,101150.01
2023-04-20T04:13:11.057Z,101151.18
2023-04-20T04:14:11.066Z,101153.74
2023-04-20T04:15:11.061Z,101147.01
2023-04-20T04:16:11.066Z,101150.44
2023-04-20T04:17:11.134Z,101151.93
2023-04-20T04:18:11.082Z,101154.39
2023-04-20T04:19:11.057Z,101148.02
2023-04-20T04:20:12.068Z,101151.70
2023-04-20T04:21:12.073Z,101152.82
2023-04-20T04:22:11.064Z,101149.60
2023-04-20T04:23:11.064Z,101151.66
2023-04-20T04:24:11.070Z,101149.30
2023-04-20T04:25:11.061Z,101150.71
2023-04-20T04:26:11.058Z,101151.34
2023-04-20T04:27:11.095Z,101144.91
2023-04-20T04:28:11.070Z,101150.80
2023-04-20T04:29:11.066Z,101149.12
2023-04-20T04:30:11.082Z,101146.43
2023-04-20T04:31:11.101Z,101146.18
2023-04-20T04:32:11.065Z,101144.83
2023-04-20T04:33:11.072Z,101144.13
2023-04-20T04:34:11.091Z,101145.72
2023-04-20T04:35:11.066Z,101146.41
2023-04-20T04:36:11.092Z,101147.39
2023-04-20T04:37:13.090Z,101146.25
2023-04-20T04:38:11.060Z,101146.93
2023-04-20T04:39:11.066Z,101146.52
2023-04-20T04:40:13.061Z,101148.32
2023-04-20T04:41:11.060Z,101146.06
2023-04-20T04:42:11.077Z,101150.23
2023-04-20T04:43:11.075Z,101149.80
2023-04-20T04:44:11.060Z,101151.71
2023-04-20T04:45:11.073Z,101154.96
2023-04-20T04:46:11.137Z,101152.91
2023-04-20T04:47:11.059Z,101150.67
2023-04-20T04:48:11.123Z,101155.62
2023-04-20T04:49:11.066Z,101152.83
2023-04-20T04:50:11.064Z,101152.65
2023-04-20T04:51:11.072Z,101153.03
2023-04-20T04:52:11.088Z,101156.62
2023-04-20T04:53:11.073Z,101155.18
2023-04-20T04:54:11.062Z,101155.62
2023-04-20T04:55:12.937Z,101155.38
2023-04-20T04:56:11.066Z,101155.19
2023-04-20T04:57:11.077Z,101156.81
2023-04-20T04:58:11.087Z,101157.67
2023-04-20T04:59:11.082Z,101159.14
2023-04-20T05:00:15.069Z,101159.01
2023-04-20T05:01:11.075Z,101157.88
2023-04-20T05:02:11.162Z,101161.88
2023-04-20T05:03:11.226Z,101161.15
2023-04-20T05:04:11.217Z,101160.41
2023-04-20T05:05:11.064Z,101157.82
2023-04-20T05:06:11.062Z,101158.11
2023-04-20T05:07:11.084Z,101162.86
2023-04-20T05:08:11.087Z,101160.32
2023-04-20T05:09:11.067Z,101163.96
2023-04-20T05:10:11.445Z,101166.12
2023-04-20T05:11:11.066Z,101166.48
2023-04-20T05:12:11.062Z,101164.79
2023-04-20T05:13:11.078Z,101164.84
2023-04-20T05:14:11.079Z,101168.19
2023-04-20T05:15:11.064Z,101168.34
2023-04-20T05:16:11.100Z,101168.09
2023-04-20T05:17:11.073Z,101167.47
2023-04-20T05:18:11.066Z,101169.88
2023-04-20T05:19:11.062Z,101171.58
2023-04-20T05:20:11.068Z,101170.79
2023-04-20T05:21:11.066Z,101170.72
2023-04-20T05:22:11.065Z,101169.32
2023-04-20T05:23:11.077Z,101167.11
2023-04-20T05:24:11.067Z,101173.64
2023-04-20T05:25:13.246Z,101170.39
2023-04-20T05:26:11.072Z,101172.84
2023-04-20T05:27:11.066Z,101172.56
2023-04-20T05:28:11.085Z,101170.43
2023-04-20T05:29:11.070Z,101172.29
2023-04-20T05:30:20.656Z,101171.16
2023-04-20T05:31:13.103Z,101175.26
2023-04-20T05:32:11.241Z,101173.87
2023-04-20T05:33:11.070Z,101172.23
2023-04-20T05:34:11.074Z,101171.60
2023-04-20T05:35:11.065Z,101169.33
2023-04-20T05:36:11.065Z,101169.38
2023-04-20T05:37:11.067Z,101169.95
2023-04-20T05:38:11.076Z,101169.57
2023-04-20T05:39:11.068Z,101171.78
2023-04-20T05:40:11.066Z,101174.48
2023-04-20T05:41:11.069Z,101170.53
2023-04-20T05:42:11.070Z,101169.21
2023-04-20T05:43:11.075Z,101169.98
2023-04-20T05:44:11.064Z,101169.69
2023-04-20T05:45:11.068Z,101170.28
2023-04-20T05:46:11.130Z,101174.00
2023-04-20T05:47:12.070Z,101174.47
2023-04-20T05:48:11.072Z,101169.63
2023-04-20T05:49:11.089Z,101170.45
2023-04-20T05:50:11.075Z,101172.30
2023-04-20T05:51:11.069Z,101171.01
2023-04-20T05:52:11.078Z,101169.48
2023-04-20T05:53:11.066Z,101172.39
2023-04-20T05:54:11.070Z,101171.60
2023-04-20T05:55:11.075Z,101171.13
2023-04-20T05:56:11.126Z,101173.76
2023-04-20T05:57:11.070Z,101172.44
2023-04-20T05:58:11.076Z,101172.49
2023-04-20T05:59:11.084Z,101174.03
2023-04-20T06:00:13.069Z,101177.31
2023-04-20T06:01:11.070Z,101176.23
2023-04-20T06:02:11.200Z,101175.65
2023-04-20T06:03:11.305Z,101175.17
2023-04-20T06:04:11.345Z,101177.41
2023-04-20T06:05:11.403Z,101176.50
2023-04-20T06:06:11.068Z,101176.33
2023-04-20T06:07:11.077Z,101177.80
2023-04-20T06:08:11.084Z,101174.61
2023-04-20T06:09:11.068Z,101172.21
2023-04-20T06:10:11.072Z,101175.72
2023-04-20T06:11:11.071Z,101176.41
2023-04-20T06:12:11.073Z,101177.60
2023-04-20T06:13:11.089Z,101176.98
2023-04-20T06:14:11.082Z,101175.45
2023-04-20T06:15:14.096Z,101178.64
2023-04-20T06:16:13.087Z,101177.36
2023-04-20T06:17:11.078Z,101178.59
2023-04-20T06:18:11.094Z,101176.70
2023-04-20T06:19:11.070Z,101175.97
2023-04-20T06:20:11.076Z,101174.83
2023-04-20T06:21:13.072Z,101175.02
2023-04-20T06:22:11.076Z,101175.87
2023-04-20T06:23:11.078Z,101176.29
2023-04-20T06:24:11.074Z,101175.70
2023-04-20T06:25:11.074Z,101174.64
2023-04-20T06:26:12.084Z,101175.41
2023-04-20T06:27:11.081Z,101176.75
2023-04-20T06:28:11.072Z,101177.29
2023-04-20T06:29:11.073Z,101178.29
2023-04-20T06:30:11.072Z,101174.79
2023-04-20T06:31:11.101Z,101170.34
2023-04-20T06:32:11.078Z,101168.78
2023-04-20T06:33:12.342Z,101172.56
2023-04-20T06:34:11.070Z,101172.22
2023-04-20T06:35:11.085Z,101171.39
2023-04-20T06:36:11.074Z,101173.62
2023-04-20T06:37:11.068Z,101168.73
2023-04-20T06:38:11.076Z,101172.29
2023-04-20T06:39:11.078Z,101168.98
2023-04-20T06:40:14.363Z,101170.84
2023-04-20T06:41:11.067Z,101168.24
2023-04-20T06:42:11.070Z,101169.48
2023-04-20T06:43:11.076Z,101165.86
2023-04-20T06:44:11.072Z,101168.49
2023-04-20T06:45:11.085Z,101164.77
2023-04-20T06:46:11.099Z,101167.85
2023-04-20T06:47:11.075Z,101166.43
2023-04-20T06:48:24.033Z,101165.00
2023-04-20T06:49:13.063Z,101164.07
2023-04-20T06:50:13.076Z,101163.23
2023-04-20T06:51:12.073Z,101163.00
2023-04-20T06:52:11.073Z,101163.29
2023-04-20T06:53:11.099Z,101157.31
2023-04-20T06:54:11.064Z,101157.25
2023-04-20T06:55:11.079Z,101158.59
2023-04-20T06:56:11.082Z,101158.87
2023-04-20T06:57:11.086Z,101159.81
2023-04-20T06:58:11.069Z,101157.09
2023-04-20T06:59:11.083Z,101158.69
2023-04-20T07:00:11.081Z,101156.70
2023-04-20T07:01:11.110Z,101156.93
2023-04-20T07:02:11.189Z,101160.27
2023-04-20T07:03:11.241Z,101157.39
2023-04-20T07:04:11.199Z,101154.79
2023-04-20T07:05:11.066Z,101158.00
2023-04-20T07:06:11.083Z,101160.64
2023-04-20T07:07:11.060Z,101159.00
2023-04-20T07:08:11.061Z,101163.18
2023-04-20T07:09:11.067Z,101161.99
2023-04-20T07:10:11.111Z,101159.18
2023-04-20T07:11:11.086Z,101158.55
2023-04-20T07:12:11.060Z,101154.97
2023-04-20T07:13:11.064Z,101154.48
2023-04-20T07:14:11.069Z,101157.62
2023-04-20T07:15:11.060Z,101158.55
2023-04-20T07:16:11.114Z,101154.80
2023-04-20T07:17:11.071Z,101153.07
2023-04-20T07:18:11.091Z,101158.98
2023-04-20T07:19:11.075Z,101154.49
2023-04-20T07:20:12.073Z,101152.49
2023-04-20T07:21:11.062Z,101155.95
2023-04-20T07:22:11.060Z,101159.28
2023-04-20T07:23:11.096Z,101157.07
2023-04-20T07:24:11.065Z,101156.93
2023-04-20T07:25:11.066Z,101157.04
2023-04-20T07:26:11.069Z,101158.05
2023-04-20T07:27:12.061Z,101157.50
2023-04-20T07:28:11.058Z,101146.81
2023-04-20T07:29:11.063Z,101157.53
2023-04-20T07:30:11.061Z,101156.06
2023-04-20T07:31:11.061Z,101156.48
2023-04-20T07:32:11.125Z,101150.94
2023-04-20T07:33:11.148Z,101146.21
2023-04-20T07:34:11.071Z,101154.61
2023-04-20T07:35:11.072Z,101146.68
2023-04-20T07:36:11.066Z,101147.07
2023-04-20T07:37:11.102Z,101144.62
2023-04-20T07:38:11.093Z,101150.66
2023-04-20T07:39:11.076Z,101153.31
2023-04-20T07:40:11.075Z,101151.89
2023-04-20T07:41:11.076Z,101150.66
2023-04-20T07:42:11.080Z,101150.77
2023-04-20T07:43:11.063Z,101147.24
2023-04-20T07:44:11.076Z,101148.43
2023-04-20T07:45:11.071Z,101147.50
2023-04-20T07:46:11.111Z,101149.60
2023-04-20T07:47:11.066Z,101148.70
2023-04-20T07:48:11.112Z,101150.02
2023-04-20T07:49:11.068Z,101140.56
2023-04-20T07:50:11.118Z,101147.38
2023-04-20T07:51:11.069Z,101142.49
2023-04-20T07:52:16.969Z,101144.50
2023-04-20T07:53:13.070Z,101143.02
2023-04-20T07:54:11.064Z,101140.12
2023-04-20T07:55:11.082Z,101144.76
2023-04-20T07:56:11.064Z,101139.39
2023-04-20T07:57:11.078Z,101140.96
2023-04-20T07:58:11.076Z,101140.58
2023-04-20T07:59:11.070Z,101143.74
2023-04-20T08:00:11.083Z,101141.34
2023-04-20T08:01:11.077Z,101139.91
2023-04-20T08:02:11.191Z,101139.20
2023-04-20T08:03:11.345Z,101137.60
2023-04-20T08:04:11.178Z,101134.00
2023-04-20T08:05:11.299Z,101135.23
2023-04-20T08:06:11.070Z,101138.32
2023-04-20T08:07:11.069Z,101134.82
2023-04-20T08:08:11.073Z,101136.25
2023-04-20T08:09:13.043Z,101137.63
2023-04-20T08:10:11.134Z,101133.16
2023-04-20T08:11:11.081Z,101138.90
2023-04-20T08:12:11.083Z,101135.77
2023-04-20T08:13:11.085Z,101137.41
2023-04-20T08:14:11.078Z,101131.48
2023-04-20T08:15:11.092Z,101131.95
2023-04-20T08:16:11.094Z,101130.78
2023-04-20T08:17:11.081Z,101133.35
2023-04-20T08:18:11.131Z,101131.81
2023-04-20T08:20:11.075Z,101135.04
2023-04-20T08:21:11.084Z,101129.88
2023-04-20T08:22:11.071Z,101132.00
2023-04-20T08:23:11.070Z,101137.94
2023-04-20T08:24:11.068Z,101131.70
2023-04-20T08:25:11.071Z,101131.18
2023-04-20T08:26:14.072Z,101131.42
2023-04-20T08:27:11.071Z,101130.48
2023-04-20T08:28:15.413Z,101139.04
2023-04-20T08:29:13.037Z,101136.54
2023-04-20T08:30:11.098Z,101129.64
2023-04-20T08:31:11.100Z,101130.39
2023-04-20T08:32:12.073Z,101134.41
2023-04-20T08:33:11.153Z,101133.05
2023-04-20T08:34:11.068Z,101120.49
2023-04-20T08:35:11.082Z,101129.52
2023-04-20T08:36:11.078Z,101130.03
2023-04-20T08:37:11.067Z,101137.24
2023-04-20T08:38:13.843Z,101132.85
2023-04-20T08:39:14.074Z,101123.78
2023-04-20T08:40:11.099Z,101118.79
2023-04-20T08:41:11.069Z,101123.64
2023-04-20T08:42:11.073Z,101120.65
2023-04-20T08:43:11.074Z,101118.20
2023-04-20T08:44:11.065Z,101115.24
2023-04-20T08:45:11.091Z,101114.62
2023-04-20T08:46:11.096Z,101118.46
2023-04-20T08:47:11.071Z,101116.59
2023-04-20T08:48:11.073Z,101118.69
2023-04-20T08:49:13.081Z,101115.41
2023-04-20T08:50:11.085Z,101115.26
2023-04-20T08:51:11.071Z,101117.16
2023-04-20T08:52:11.086Z,101111.75
2023-04-20T08:53:11.071Z,101108.96
2023-04-20T08:54:11.072Z,101112.31
2023-04-20T08:55:11.072Z,101113.59
2023-04-20T08:56:11.072Z,101112.96
2023-04-20T08:57:11.082Z,101112.16
2023-04-20T08:58:11.080Z,101112.20
2023-04-20T08:59:11.080Z,101111.85
2023-04-20T09:00:14.245Z,101110.00
2023-04-20T09:01:11.168Z,101108.79
2023-04-20T09:02:13.223Z,101115.68
2023-04-20T09:03:11.415Z,101107.89
2023-04-20T09:04:18.832Z,101112.59
2023-04-20T09:05:11.105Z,101108.02
2023-04-20T09:06:18.089Z,101109.24
2023-04-20T09:07:19.074Z,101110.58
2023-04-20T09:08:11.080Z,101108.89
2023-04-20T09:09:11.081Z,101107.21
2023-04-20T09:10:11.075Z,101100.23
2023-04-20T09:11:19.085Z,101109.08
2023-04-20T09:12:11.075Z,101100.79
2023-04-20T09:13:15.122Z,101096.47
2023-04-20T09:14:15.256Z,101097.34
2023-04-20T09:15:11.069Z,101099.29
2023-04-20T09:16:13.110Z,101095.90
2023-04-20T09:17:11.070Z,101094.35
2023-04-20T09:18:13.070Z,101095.49
2023-04-20T09:19:12.864Z,101086.13
2023-04-20T09:20:11.074Z,101084.96
2023-04-20T09:21:11.074Z,101083.75
2023-04-20T09:22:11.090Z,101085.16
2023-04-20T09:23:16.072Z,101082.57
2023-04-20T09:24:13.071Z,101080.12
2023-04-20T09:25:17.081Z,101079.55
2023-04-20T09:26:17.073Z,101079.19
2023-04-20T09:27:18.072Z,101079.05
2023-04-20T09:28:11.076Z,101075.59
2023-04-20T09:29:18.070Z,101077.11
2023-04-20T09:30:11.069Z,101082.52
2023-04-20T09:31:18.100Z,101071.56
2023-04-20T09:32:15.146Z,101078.91
2023-04-20T09:33:12.148Z,101076.90
2023-04-20T09:34:11.083Z,101075.39
2023-04-20T09:35:11.076Z,101073.85
2023-04-20T09:36:11.073Z,101076.16
2023-04-20T09:37:11.081Z,101070.93
2023-04-20T09:38:11.076Z,101067.03
2023-04-20T09:39:17.080Z,101067.61
2023-04-20T09:40:11.075Z,101070.34
2023-04-20T09:41:11.074Z,101069.86
2023-04-20T09:42:13.081Z,101067.35
2023-04-20T09:43:22.072Z,101071.23
2023-04-20T09:44:11.071Z,101070.75
2023-04-20T09:45:12.078Z,101070.64
2023-04-20T09:46:11.103Z,101068.42
2023-04-20T09:47:15.075Z,101067.01
2023-04-20T09:48:11.079Z,101065.97
2023-04-20T09:49:11.076Z,101065.58
2023-04-20T09:50:24.682Z,101069.70
2023-04-20T09:51:13.073Z,101069.01
2023-04-20T09:52:11.091Z,101066.63
2023-04-20T09:53:11.080Z,101066.98
2023-04-20T09:54:11.081Z,101062.60
2023-04-20T09:55:13.084Z,101060.34
2023-04-20T09:56:11.076Z,101065.42
2023-04-20T09:57:11.070Z,101057.07
2023-04-20T09:58:11.077Z,101052.75
2023-04-20T09:59:11.082Z,101055.62
2023-04-20T10:00:11.073Z,101053.27
2023-04-20T10:01:12.140Z,101050.39
2023-04-20T10:02:11.130Z,101052.07
2023-04-20T10:03:12.146Z,101049.85
2023-04-20T10:04:11.485Z,101050.32
2023-04-20T10:05:11.063Z,101043.11
2023-04-20T10:06:19.056Z,101044.72
2023-04-20T10:07:11.058Z,101048.49
2023-04-20T10:08:11.065Z,101051.05
2023-04-20T10:09:15.060Z,101049.04
2023-04-20T10:10:15.078Z,101052.12
2023-04-20T10:11:11.070Z,101047.41
2023-04-20T10:12:11.059Z,101044.40
2023-04-20T10:13:11.064Z,101046.77
2023-04-20T10:14:15.180Z,101045.53
2023-04-20T10:15:11.089Z,101046.16
2023-04-20T10:16:19.093Z,101045.85
2023-04-20T10:17:11.261Z,101047.80
2023-04-20T10:18:15.207Z,101050.51
2023-04-20T10:19:11.068Z,101042.30
2023-04-20T10:20:19.093Z,101044.81
2023-04-20T10:21:11.070Z,101039.61
2023-04-20T10:22:11.076Z,101038.05
2023-04-20T10:23:11.060Z,101037.58
2023-04-20T10:24:11.063Z,101046.86
2023-04-20T10:25:15.061Z,101048.68
2023-04-20T10:26:11.076Z,101047.45
2023-04-20T10:27:17.066Z,101043.09
2023-04-20T10:28:13.065Z,101044.24
2023-04-20T10:29:16.063Z,101060.99
2023-04-20T10:30:11.084Z,101046.56
2023-04-20T10:31:11.129Z,101037.40
2023-04-20T10:32:15.061Z,101038.28
2023-04-20T10:33:13.476Z,101030.18
2023-04-20T10:34:11.064Z,101030.46
2023-04-20T10:35:12.074Z,101022.76
2023-04-20T10:36:11.060Z,101020.34
2023-04-20T10:37:11.124Z,101021.42
2023-04-20T10:38:11.063Z,101018.56
2023-04-20T10:39:16.616Z,101026.26
2023-04-20T10:40:11.070Z,101023.94
2023-04-20T10:41:11.069Z,101016.42
2023-04-20T10:42:11.063Z,101020.94
2023-04-20T10:43:19.085Z,101019.66
2023-04-20T10:44:11.072Z,101026.08
2023-04-20T10:45:11.063Z,101027.20
2023-04-20T10:46:15.135Z,101027.86
2023-04-20T10:47:11.069Z,101020.00
2023-04-20T10:48:12.103Z,101016.48
2023-04-20T10:49:11.063Z,101019.94
2023-04-20T10:50:11.094Z,101015.63
2023-04-20T10:51:13.076Z,101014.17
2023-04-20T10:52:11.062Z,101014.34
2023-04-20T10:53:19.070Z,101006.67
2023-04-20T10:54:11.073Z,101011.90
2023-04-20T10:55:19.072Z,101011.76
2023-04-20T10:56:11.071Z,101011.68
2023-04-20T10:57:15.075Z,101005.41
2023-04-20T10:58:15.070Z,101008.11
2023-04-20T10:59:15.068Z,101005.96
2023-04-20T11:00:19.080Z,101010.91
2023-04-20T11:01:11.069Z,101007.16
2023-04-20T11:02:11.201Z,101008.10
2023-04-20T11:03:13.194Z,101000.48
2023-04-20T11:04:11.074Z,100993.36
2023-04-20T11:05:13.102Z,100990.61
2023-04-20T11:06:11.072Z,100989.50
2023-04-20T11:07:11.083Z,100986.53
2023-04-20T11:08:11.074Z,100982.89
2023-04-20T11:09:17.390Z,100991.20
2023-04-20T11:10:11.073Z,100981.96
2023-04-20T11:11:19.126Z,100984.01
2023-04-20T11:12:11.069Z,100980.84
2023-04-20T11:13:19.090Z,100988.11
2023-04-20T11:14:11.091Z,100986.95
2023-04-20T11:15:11.075Z,100981.73
2023-04-20T11:16:15.168Z,100989.69
2023-04-20T11:17:11.113Z,100989.20
2023-04-20T11:18:11.082Z,100990.74
2023-04-20T11:19:11.070Z,100976.36
2023-04-20T11:20:15.163Z,100969.76
2023-04-20T11:21:11.073Z,100963.75
2023-04-20T11:22:15.081Z,100968.28
2023-04-20T11:23:11.071Z,100968.12
2023-04-20T11:24:19.075Z,100965.62
2023-04-20T11:25:11.076Z,100961.44